Tecumseh, Canada
Current Conditions -  °F | °C
As of 2:00 AM on Thursday 27 Nov 2014 (Local Time) from CYQG Reporting Station
Snow Showers Snow Showers  
Wind Chill: -7°   Ceiling: 5700
Heat Index: -1°   Visibility: 12mi
Dew Point: -5°   Wind: 13mph
Humidity: 75%   Direction: 330°NNW
Pressure: 30.07"   Gusts: NA
Location:  42.32°N, 82.89°W
Report Text: CYQG 270700Z 33011KT 12SM -SHSN SCT046 OVC057 M01/M05 A3007 RMK SC4CU4 SLP190
Loading
Personal Weather Stations






























Interactive Weather Map New forecast layout! Learn more

10-Day Weather Forecast

Advertisements
Track Severe Weather on mobile